TAF Text Data
IDs:
Format:
Raw Decoded Include METAR

Data at: 1620 UTC 20 Sep 2018

TAF for:KSFO (San Francisco Intl, CA, US) issued at 1503 UTC 20 Sep 2018
Text:KSFO 201503Z 2015/2118 05003KT P6SM SKC
Forecast period:1500 to 2000 UTC 20 September 2018
Forecast type:FROM: standard forecast or significant change
Winds:from the NE (50 degrees) at 3 MPH (3 knots; 1.5 m/s)
Visibility:6 or more sm (10+ km)
Ceiling:at least 12,000 feet AGL
Clouds:clear skies
Text:FM202000 34007KT P6SM SKC
Forecast period:2000 to 2200 UTC 20 September 2018
Forecast type:FROM: standard forecast or significant change
Winds:from the NNW (340 degrees) at 8 MPH (7 knots; 3.6 m/s)
Visibility:6 or more sm (10+ km)
Ceiling:at least 12,000 feet AGL
Clouds:clear skies
Text:FM202200 31012KT P6SM SKC
Forecast period:2200 UTC 20 September 2018 to 0500 UTC 21 September 2018
Forecast type:FROM: standard forecast or significant change
Winds:from the NW (310 degrees) at 14 MPH (12 knots; 6.2 m/s)
Visibility:6 or more sm (10+ km)
Ceiling:at least 12,000 feet AGL
Clouds:clear skies
Text:FM210500 31007KT P6SM SKC
Forecast period:0500 to 1800 UTC 21 September 2018
Forecast type:FROM: standard forecast or significant change
Winds:from the NW (310 degrees) at 8 MPH (7 knots; 3.6 m/s)
Visibility:6 or more sm (10+ km)
Ceiling:at least 12,000 feet AGL
Clouds:clear skies